sensor_id;sensor_type;location;lat;lon;timestamp;temperature;humidity
69770;SHT30;57282;52.514;13.458;2022-12-18T00:02:19;-2.68;78.26
69770;SHT30;57282;52.514;13.458;2022-12-18T00:04:47;-2.62;78.42
69770;SHT30;57282;52.514;13.458;2022-12-18T00:07:13;-2.72;78.10
69770;SHT30;57282;52.514;13.458;2022-12-18T00:09:40;-2.76;78.52
69770;SHT30;57282;52.514;13.458;2022-12-18T00:12:07;-2.69;78.27
69770;SHT30;57282;52.514;13.458;2022-12-18T00:14:34;-2.78;78.01
69770;SHT30;57282;52.514;13.458;2022-12-18T00:17:03;-2.78;78.44
69770;SHT30;57282;52.514;13.458;2022-12-18T00:19:29;-3.02;78.75
69770;SHT30;57282;52.514;13.458;2022-12-18T00:21:56;-3.02;79.41
69770;SHT30;57282;52.514;13.458;2022-12-18T00:24:23;-3.02;79.42
69770;SHT30;57282;52.514;13.458;2022-12-18T00:26:49;-2.95;79.50
69770;SHT30;57282;52.514;13.458;2022-12-18T00:29:16;-2.92;79.30
69770;SHT30;57282;52.514;13.458;2022-12-18T00:31:43;-2.86;79.08
69770;SHT30;57282;52.514;13.458;2022-12-18T00:34:12;-2.86;79.03
69770;SHT30;57282;52.514;13.458;2022-12-18T00:36:39;-2.91;78.76
69770;SHT30;57282;52.514;13.458;2022-12-18T00:39:07;-2.89;78.83
69770;SHT30;57282;52.514;13.458;2022-12-18T00:41:33;-2.89;78.67
69770;SHT30;57282;52.514;13.458;2022-12-18T00:44:18;-2.89;78.75
69770;SHT30;57282;52.514;13.458;2022-12-18T00:46:47;-2.86;78.16
69770;SHT30;57282;52.514;13.458;2022-12-18T00:49:16;-2.85;77.69
69770;SHT30;57282;52.514;13.458;2022-12-18T00:51:43;-2.89;77.79
69770;SHT30;57282;52.514;13.458;2022-12-18T00:54:10;-3.03;77.82
69770;SHT30;57282;52.514;13.458;2022-12-18T00:56:38;-3.02;77.93
69770;SHT30;57282;52.514;13.458;2022-12-18T00:59:05;-3.12;77.81
69770;SHT30;57282;52.514;13.458;2022-12-18T01:01:32;-3.14;78.24
69770;SHT30;57282;52.514;13.458;2022-12-18T01:04:00;-3.13;78.40
69770;SHT30;57282;52.514;13.458;2022-12-18T01:06:29;-3.13;78.21
69770;SHT30;57282;52.514;13.458;2022-12-18T01:08:56;-3.19;78.01
69770;SHT30;57282;52.514;13.458;2022-12-18T01:11:24;-3.09;78.02
69770;SHT30;57282;52.514;13.458;2022-12-18T01:13:51;-3.07;78.02
69770;SHT30;57282;52.514;13.458;2022-12-18T01:16:19;-2.97;78.34
69770;SHT30;57282;52.514;13.458;2022-12-18T01:18:46;-2.97;77.85
69770;SHT30;57282;52.514;13.458;2022-12-18T01:21:14;-2.95;78.09
69770;SHT30;57282;52.514;13.458;2022-12-18T01:23:43;-2.99;77.57
69770;SHT30;57282;52.514;13.458;2022-12-18T01:26:11;-3.09;77.69
69770;SHT30;57282;52.514;13.458;2022-12-18T01:28:39;-3.10;77.72
69770;SHT30;57282;52.514;13.458;2022-12-18T01:31:14;-3.14;76.95
69770;SHT30;57282;52.514;13.458;2022-12-18T01:33:44;-3.21;77.26
69770;SHT30;57282;52.514;13.458;2022-12-18T01:36:16;-3.23;77.13
69770;SHT30;57282;52.514;13.458;2022-12-18T01:38:46;-3.32;77.50
69770;SHT30;57282;52.514;13.458;2022-12-18T01:41:14;-3.37;77.91
69770;SHT30;57282;52.514;13.458;2022-12-18T01:43:51;-3.44;78.33
69770;SHT30;57282;52.514;13.458;2022-12-18T01:46:21;-3.43;78.32
69770;SHT30;57282;52.514;13.458;2022-12-18T01:48:53;-3.41;78.49
69770;SHT30;57282;52.514;13.458;2022-12-18T01:51:23;-3.44;78.71
69770;SHT30;57282;52.514;13.458;2022-12-18T01:53:51;-3.40;78.39
69770;SHT30;57282;52.514;13.458;2022-12-18T01:56:19;-3.40;77.88
69770;SHT30;57282;52.514;13.458;2022-12-18T01:58:52;-3.41;77.78
69770;SHT30;57282;52.514;13.458;2022-12-18T02:01:23;-3.37;77.74
69770;SHT30;57282;52.514;13.458;2022-12-18T02:03:51;-3.43;78.04
69770;SHT30;57282;52.514;13.458;2022-12-18T02:06:21;-3.53;78.22
69770;SHT30;57282;52.514;13.458;2022-12-18T02:09:02;-3.46;78.35
69770;SHT30;57282;52.514;13.458;2022-12-18T02:11:41;-3.53;78.41
69770;SHT30;57282;52.514;13.458;2022-12-18T02:14:21;-3.55;78.77
69770;SHT30;57282;52.514;13.458;2022-12-18T02:17:00;-3.60;78.95
69770;SHT30;57282;52.514;13.458;2022-12-18T02:19:43;-3.60;78.64
69770;SHT30;57282;52.514;13.458;2022-12-18T02:22:28;-3.55;78.68
69770;SHT30;57282;52.514;13.458;2022-12-18T02:25:13;-3.55;78.74
69770;SHT30;57282;52.514;13.458;2022-12-18T02:27:53;-3.51;78.40
69770;SHT30;57282;52.514;13.458;2022-12-18T02:30:24;-3.47;78.65
69770;SHT30;57282;52.514;13.458;2022-12-18T02:32:56;-3.48;78.67
69770;SHT30;57282;52.514;13.458;2022-12-18T02:35:28;-3.47;78.07
69770;SHT30;57282;52.514;13.458;2022-12-18T02:37:57;-3.54;78.08
69770;SHT30;57282;52.514;13.458;2022-12-18T02:40:26;-3.54;78.35
69770;SHT30;57282;52.514;13.458;2022-12-18T02:43:02;-3.51;78.62
69770;SHT30;57282;52.514;13.458;2022-12-18T02:45:33;-3.50;78.51
69770;SHT30;57282;52.514;13.458;2022-12-18T02:47:59;-3.41;77.99
69770;SHT30;57282;52.514;13.458;2022-12-18T02:50:31;-3.48;77.96
69770;SHT30;57282;52.514;13.458;2022-12-18T02:53:08;-3.54;78.41
69770;SHT30;57282;52.514;13.458;2022-12-18T02:55:50;-3.54;78.67
69770;SHT30;57282;52.514;13.458;2022-12-18T02:58:31;-3.55;78.44
69770;SHT30;57282;52.514;13.458;2022-12-18T03:01:10;-3.60;78.29
69770;SHT30;57282;52.514;13.458;2022-12-18T03:03:45;-3.62;78.98
69770;SHT30;57282;52.514;13.458;2022-12-18T03:06:20;-3.64;78.68
69770;SHT30;57282;52.514;13.458;2022-12-18T03:08:54;-3.62;78.55
69770;SHT30;57282;52.514;13.458;2022-12-18T03:11:25;-3.64;78.68
69770;SHT30;57282;52.514;13.458;2022-12-18T03:14:13;-3.71;78.51
69770;SHT30;57282;52.514;13.458;2022-12-18T03:16:44;-3.68;78.50
69770;SHT30;57282;52.514;13.458;2022-12-18T03:19:16;-3.70;78.70
69770;SHT30;57282;52.514;13.458;2022-12-18T03:21:50;-3.67;78.72
69770;SHT30;57282;52.514;13.458;2022-12-18T03:24:21;-3.67;78.84
69770;SHT30;57282;52.514;13.458;2022-12-18T03:26:53;-3.64;78.34
69770;SHT30;57282;52.514;13.458;2022-12-18T03:29:28;-3.68;78.56
69770;SHT30;57282;52.514;13.458;2022-12-18T03:32:04;-3.70;78.07
69770;SHT30;57282;52.514;13.458;2022-12-18T03:34:36;-3.61;78.22
69770;SHT30;57282;52.514;13.458;2022-12-18T03:37:05;-3.60;77.93
69770;SHT30;57282;52.514;13.458;2022-12-18T03:39:35;-3.60;77.83
69770;SHT30;57282;52.514;13.458;2022-12-18T03:42:06;-3.60;77.26
69770;SHT30;57282;52.514;13.458;2022-12-18T03:44:45;-3.65;77.59
69770;SHT30;57282;52.514;13.458;2022-12-18T03:47:24;-3.67;77.65
69770;SHT30;57282;52.514;13.458;2022-12-18T03:49:57;-3.68;78.02
69770;SHT30;57282;52.514;13.458;2022-12-18T03:52:34;-3.67;78.39
69770;SHT30;57282;52.514;13.458;2022-12-18T03:55:05;-3.70;78.17
69770;SHT30;57282;52.514;13.458;2022-12-18T03:57:35;-3.67;77.86
69770;SHT30;57282;52.514;13.458;2022-12-18T04:00:08;-3.62;77.63
69770;SHT30;57282;52.514;13.458;2022-12-18T04:02:38;-3.67;77.59
69770;SHT30;57282;52.514;13.458;2022-12-18T04:05:10;-3.64;77.45
69770;SHT30;57282;52.514;13.458;2022-12-18T04:07:41;-3.64;77.70
69770;SHT30;57282;52.514;13.458;2022-12-18T04:10:12;-3.64;77.66
69770;SHT30;57282;52.514;13.458;2022-12-18T04:12:40;-3.67;77.65
69770;SHT30;57282;52.514;13.458;2022-12-18T04:15:10;-3.74;77.71
69770;SHT30;57282;52.514;13.458;2022-12-18T04:17:38;-3.72;78.04
69770;SHT30;57282;52.514;13.458;2022-12-18T04:20:11;-3.74;78.10
69770;SHT30;57282;52.514;13.458;2022-12-18T04:22:38;-3.67;77.96
69770;SHT30;57282;52.514;13.458;2022-12-18T04:25:04;-3.70;77.56
69770;SHT30;57282;52.514;13.458;2022-12-18T04:27:32;-3.62;77.06
69770;SHT30;57282;52.514;13.458;2022-12-18T04:29:58;-3.60;77.07
69770;SHT30;57282;52.514;13.458;2022-12-18T04:32:26;-3.61;77.13
69770;SHT30;57282;52.514;13.458;2022-12-18T04:34:53;-3.72;77.21
69770;SHT30;57282;52.514;13.458;2022-12-18T04:37:20;-3.70;77.17
69770;SHT30;57282;52.514;13.458;2022-12-18T04:39:46;-3.68;77.12
69770;SHT30;57282;52.514;13.458;2022-12-18T04:42:13;-3.71;77.20
69770;SHT30;57282;52.514;13.458;2022-12-18T04:44:40;-3.64;76.74
69770;SHT30;57282;52.514;13.458;2022-12-18T04:47:06;-3.71;76.90
69770;SHT30;57282;52.514;13.458;2022-12-18T04:49:35;-3.85;77.01
69770;SHT30;57282;52.514;13.458;2022-12-18T04:52:01;-3.86;77.38
69770;SHT30;57282;52.514;13.458;2022-12-18T04:54:28;-3.93;77.60
69770;SHT30;57282;52.514;13.458;2022-12-18T04:56:55;-3.86;77.63
69770;SHT30;57282;52.514;13.458;2022-12-18T04:59:21;-3.91;77.74
69770;SHT30;57282;52.514;13.458;2022-12-18T05:01:48;-3.93;77.60
69770;SHT30;57282;52.514;13.458;2022-12-18T05:04:14;-3.95;78.17
69770;SHT30;57282;52.514;13.458;2022-12-18T05:06:42;-3.89;78.12
69770;SHT30;57282;52.514;13.458;2022-12-18T05:09:09;-3.88;77.73
69770;SHT30;57282;52.514;13.458;2022-12-18T05:11:36;-3.86;77.81
69770;SHT30;57282;52.514;13.458;2022-12-18T05:14:02;-3.86;77.90
69770;SHT30;57282;52.514;13.458;2022-12-18T05:16:29;-3.88;77.73
69770;SHT30;57282;52.514;13.458;2022-12-18T05:18:56;-3.86;77.70
69770;SHT30;57282;52.514;13.458;2022-12-18T05:21:22;-3.89;78.05
69770;SHT30;57282;52.514;13.458;2022-12-18T05:23:50;-3.83;77.79
69770;SHT30;57282;52.514;13.458;2022-12-18T05:26:17;-3.92;78.16
69770;SHT30;57282;52.514;13.458;2022-12-18T05:28:45;-3.85;78.27
69770;SHT30;57282;52.514;13.458;2022-12-18T05:31:12;-3.91;78.53
69770;SHT30;57282;52.514;13.458;2022-12-18T05:33:39;-3.88;78.57
69770;SHT30;57282;52.514;13.458;2022-12-18T05:36:07;-3.81;78.67
69770;SHT30;57282;52.514;13.458;2022-12-18T05:38:38;-3.79;78.33
69770;SHT30;57282;52.514;13.458;2022-12-18T05:41:07;-3.83;78.42
69770;SHT30;57282;52.514;13.458;2022-12-18T05:43:35;-3.75;78.59
69770;SHT30;57282;52.514;13.458;2022-12-18T05:46:05;-3.75;78.53
69770;SHT30;57282;52.514;13.458;2022-12-18T05:48:32;-3.74;78.49
69770;SHT30;57282;52.514;13.458;2022-12-18T05:51:04;-3.77;78.52
69770;SHT30;57282;52.514;13.458;2022-12-18T05:53:32;-3.81;78.73
69770;SHT30;57282;52.514;13.458;2022-12-18T05:56:00;-3.77;78.82
69770;SHT30;57282;52.514;13.458;2022-12-18T05:58:29;-3.74;78.79
69770;SHT30;57282;52.514;13.458;2022-12-18T06:00:57;-3.74;78.57
69770;SHT30;57282;52.514;13.458;2022-12-18T06:03:24;-3.75;78.72
69770;SHT30;57282;52.514;13.458;2022-12-18T06:05:51;-3.75;78.74
69770;SHT30;57282;52.514;13.458;2022-12-18T06:08:18;-3.77;79.11
69770;SHT30;57282;52.514;13.458;2022-12-18T06:10:50;-3.70;79.03
69770;SHT30;57282;52.514;13.458;2022-12-18T06:13:18;-3.64;78.84
69770;SHT30;57282;52.514;13.458;2022-12-18T06:15:46;-3.65;78.60
69770;SHT30;57282;52.514;13.458;2022-12-18T06:18:12;-3.70;78.81
69770;SHT30;57282;52.514;13.458;2022-12-18T06:20:39;-3.64;78.65
69770;SHT30;57282;52.514;13.458;2022-12-18T06:23:06;-3.64;78.87
69770;SHT30;57282;52.514;13.458;2022-12-18T06:25:33;-3.62;78.40
69770;SHT30;57282;52.514;13.458;2022-12-18T06:28:00;-3.62;78.75
69770;SHT30;57282;52.514;13.458;2022-12-18T06:30:26;-3.67;78.66
69770;SHT30;57282;52.514;13.458;2022-12-18T06:32:54;-3.62;78.41
69770;SHT30;57282;52.514;13.458;2022-12-18T06:35:21;-3.64;78.18
69770;SHT30;57282;52.514;13.458;2022-12-18T06:37:48;-3.72;78.40
69770;SHT30;57282;52.514;13.458;2022-12-18T06:40:15;-3.70;78.51
69770;SHT30;57282;52.514;13.458;2022-12-18T06:42:42;-3.65;78.46
69770;SHT30;57282;52.514;13.458;2022-12-18T06:45:09;-3.65;78.23
69770;SHT30;57282;52.514;13.458;2022-12-18T06:47:36;-3.64;78.16
69770;SHT30;57282;52.514;13.458;2022-12-18T06:50:05;-3.67;78.32
69770;SHT30;57282;52.514;13.458;2022-12-18T06:52:33;-3.67;78.36
69770;SHT30;57282;52.514;13.458;2022-12-18T06:54:59;-3.62;78.21
69770;SHT30;57282;52.514;13.458;2022-12-18T06:57:26;-3.64;78.34
69770;SHT30;57282;52.514;13.458;2022-12-18T06:59:53;-3.65;78.34
69770;SHT30;57282;52.514;13.458;2022-12-18T07:02:20;-3.70;77.93
69770;SHT30;57282;52.514;13.458;2022-12-18T07:04:49;-3.62;78.19
69770;SHT30;57282;52.514;13.458;2022-12-18T07:07:17;-3.65;78.25
69770;SHT30;57282;52.514;13.458;2022-12-18T07:09:45;-3.67;78.14
69770;SHT30;57282;52.514;13.458;2022-12-18T07:12:12;-3.61;77.77
69770;SHT30;57282;52.514;13.458;2022-12-18T07:14:39;-3.61;77.99
69770;SHT30;57282;52.514;13.458;2022-12-18T07:17:07;-3.70;78.18
69770;SHT30;57282;52.514;13.458;2022-12-18T07:19:34;-3.68;77.81
69770;SHT30;57282;52.514;13.458;2022-12-18T07:22:01;-3.65;77.56
69770;SHT30;57282;52.514;13.458;2022-12-18T07:24:29;-3.65;77.28
69770;SHT30;57282;52.514;13.458;2022-12-18T07:26:56;-3.60;77.64
69770;SHT30;57282;52.514;13.458;2022-12-18T07:29:22;-3.55;77.59
69770;SHT30;57282;52.514;13.458;2022-12-18T07:31:49;-3.51;77.67
69770;SHT30;57282;52.514;13.458;2022-12-18T07:34:16;-3.47;77.68
69770;SHT30;57282;52.514;13.458;2022-12-18T07:36:43;-3.48;77.47
69770;SHT30;57282;52.514;13.458;2022-12-18T07:39:10;-3.44;77.49
69770;SHT30;57282;52.514;13.458;2022-12-18T07:41:38;-3.48;77.13
69770;SHT30;57282;52.514;13.458;2022-12-18T07:44:09;-3.48;76.87
69770;SHT30;57282;52.514;13.458;2022-12-18T07:46:36;-3.48;77.00
69770;SHT30;57282;52.514;13.458;2022-12-18T07:49:04;-3.47;77.24
69770;SHT30;57282;52.514;13.458;2022-12-18T07:51:30;-3.47;77.28
69770;SHT30;57282;52.514;13.458;2022-12-18T07:53:57;-3.48;77.15
69770;SHT30;57282;52.514;13.458;2022-12-18T07:56:24;-3.46;77.19
69770;SHT30;57282;52.514;13.458;2022-12-18T07:58:52;-3.40;77.23
69770;SHT30;57282;52.514;13.458;2022-12-18T08:01:18;-3.40;77.09
69770;SHT30;57282;52.514;13.458;2022-12-18T08:03:45;-3.37;77.24
69770;SHT30;57282;52.514;13.458;2022-12-18T08:06:11;-3.36;77.28
69770;SHT30;57282;52.514;13.458;2022-12-18T08:08:38;-3.41;77.07
69770;SHT30;57282;52.514;13.458;2022-12-18T08:11:06;-3.40;77.35
69770;SHT30;57282;52.514;13.458;2022-12-18T08:13:33;-3.37;76.98
69770;SHT30;57282;52.514;13.458;2022-12-18T08:16:03;-3.40;76.85
69770;SHT30;57282;52.514;13.458;2022-12-18T08:18:34;-3.34;76.34
69770;SHT30;57282;52.514;13.458;2022-12-18T08:21:09;-3.40;76.64
69770;SHT30;57282;52.514;13.458;2022-12-18T08:23:37;-3.44;76.71
69770;SHT30;57282;52.514;13.458;2022-12-18T08:26:06;-3.41;76.90
69770;SHT30;57282;52.514;13.458;2022-12-18T08:28:33;-3.44;76.97
69770;SHT30;57282;52.514;13.458;2022-12-18T08:31:02;-3.43;77.03
69770;SHT30;57282;52.514;13.458;2022-12-18T08:33:29;-3.47;76.90
69770;SHT30;57282;52.514;13.458;2022-12-18T08:35:57;-3.47;76.91
69770;SHT30;57282;52.514;13.458;2022-12-18T08:38:25;-3.51;76.87
69770;SHT30;57282;52.514;13.458;2022-12-18T08:40:58;-3.53;77.19
69770;SHT30;57282;52.514;13.458;2022-12-18T08:43:25;-3.47;77.14
69770;SHT30;57282;52.514;13.458;2022-12-18T08:46:11;-3.44;76.95
69770;SHT30;57282;52.514;13.458;2022-12-18T08:48:42;-3.39;76.36
69770;SHT30;57282;52.514;13.458;2022-12-18T08:51:10;-3.39;76.78
69770;SHT30;57282;52.514;13.458;2022-12-18T08:53:36;-3.39;77.05
69770;SHT30;57282;52.514;13.458;2022-12-18T08:56:16;-3.41;76.99
69770;SHT30;57282;52.514;13.458;2022-12-18T08:58:43;-3.33;76.88
69770;SHT30;57282;52.514;13.458;2022-12-18T09:01:12;-3.32;76.90
69770;SHT30;57282;52.514;13.458;2022-12-18T09:03:39;-3.27;76.96
69770;SHT30;57282;52.514;13.458;2022-12-18T09:06:07;-3.32;76.87
69770;SHT30;57282;52.514;13.458;2022-12-18T09:08:36;-3.29;76.89
69770;SHT30;57282;52.514;13.458;2022-12-18T09:11:03;-3.21;76.91
69770;SHT30;57282;52.514;13.458;2022-12-18T09:13:30;-3.20;77.19
69770;SHT30;57282;52.514;13.458;2022-12-18T09:15:58;-3.17;77.23
69770;SHT30;57282;52.514;13.458;2022-12-18T09:18:26;-3.13;77.33
69770;SHT30;57282;52.514;13.458;2022-12-18T09:20:53;-3.14;76.93
69770;SHT30;57282;52.514;13.458;2022-12-18T09:23:20;-3.10;76.96
69770;SHT30;57282;52.514;13.458;2022-12-18T09:25:47;-3.06;77.20
69770;SHT30;57282;52.514;13.458;2022-12-18T09:28:17;-3.06;77.11
69770;SHT30;57282;52.514;13.458;2022-12-18T09:30:47;-3.07;76.77
69770;SHT30;57282;52.514;13.458;2022-12-18T09:33:15;-3.05;76.93
69770;SHT30;57282;52.514;13.458;2022-12-18T09:35:45;-3.02;77.00
69770;SHT30;57282;52.514;13.458;2022-12-18T09:38:14;-2.96;76.76
69770;SHT30;57282;52.514;13.458;2022-12-18T09:40:44;-2.95;77.04
69770;SHT30;57282;52.514;13.458;2022-12-18T09:43:17;-2.89;77.51
69770;SHT30;57282;52.514;13.458;2022-12-18T09:45:50;-2.88;77.58
69770;SHT30;57282;52.514;13.458;2022-12-18T09:48:23;-2.83;77.95
69770;SHT30;57282;52.514;13.458;2022-12-18T09:50:59;-2.76;78.34
69770;SHT30;57282;52.514;13.458;2022-12-18T09:53:33;-2.74;78.21
69770;SHT30;57282;52.514;13.458;2022-12-18T09:56:05;-2.74;78.39
69770;SHT30;57282;52.514;13.458;2022-12-18T09:58:41;-2.72;78.39
69770;SHT30;57282;52.514;13.458;2022-12-18T10:01:16;-2.71;78.54
69770;SHT30;57282;52.514;13.458;2022-12-18T10:03:47;-2.64;78.55
69770;SHT30;57282;52.514;13.458;2022-12-18T10:06:20;-2.71;79.18
69770;SHT30;57282;52.514;13.458;2022-12-18T10:08:57;-2.60;79.00
69770;SHT30;57282;52.514;13.458;2022-12-18T10:11:39;-2.55;79.05
69770;SHT30;57282;52.514;13.458;2022-12-18T10:14:15;-2.60;78.86
69770;SHT30;57282;52.514;13.458;2022-12-18T10:16:57;-2.50;78.70
69770;SHT30;57282;52.514;13.458;2022-12-18T10:19:39;-2.47;78.56
69770;SHT30;57282;52.514;13.458;2022-12-18T10:22:22;-2.44;78.45
69770;SHT30;57282;52.514;13.458;2022-12-18T10:25:15;-2.41;78.73
69770;SHT30;57282;52.514;13.458;2022-12-18T10:27:47;-2.37;78.61
69770;SHT30;57282;52.514;13.458;2022-12-18T10:30:19;-2.32;78.47
69770;SHT30;57282;52.514;13.458;2022-12-18T10:32:47;-2.30;78.99
69770;SHT30;57282;52.514;13.458;2022-12-18T10:35:18;-2.27;79.24
69770;SHT30;57282;52.514;13.458;2022-12-18T10:38:02;-2.26;79.34
69770;SHT30;57282;52.514;13.458;2022-12-18T10:40:31;-2.23;79.55
69770;SHT30;57282;52.514;13.458;2022-12-18T10:43:09;-2.13;79.50
69770;SHT30;57282;52.514;13.458;2022-12-18T10:45:38;-2.14;79.73
69770;SHT30;57282;52.514;13.458;2022-12-18T10:48:19;-2.11;79.89
69770;SHT30;57282;52.514;13.458;2022-12-18T10:50:49;-2.11;79.64
69770;SHT30;57282;52.514;13.458;2022-12-18T10:53:21;-2.09;79.79
69770;SHT30;57282;52.514;13.458;2022-12-18T10:55:51;-2.09;79.76
69770;SHT30;57282;52.514;13.458;2022-12-18T10:58:23;-2.06;79.78
69770;SHT30;57282;52.514;13.458;2022-12-18T11:01:07;-1.99;79.96
69770;SHT30;57282;52.514;13.458;2022-12-18T11:03:38;-1.96;79.79
69770;SHT30;57282;52.514;13.458;2022-12-18T11:06:10;-1.93;79.83
69770;SHT30;57282;52.514;13.458;2022-12-18T11:08:40;-1.96;79.62
69770;SHT30;57282;52.514;13.458;2022-12-18T11:11:23;-1.92;79.84
69770;SHT30;57282;52.514;13.458;2022-12-18T11:13:58;-1.89;79.82
69770;SHT30;57282;52.514;13.458;2022-12-18T11:16:30;-1.82;79.92
69770;SHT30;57282;52.514;13.458;2022-12-18T11:19:17;-1.87;79.68
69770;SHT30;57282;52.514;13.458;2022-12-18T11:21:49;-1.86;79.84
69770;SHT30;57282;52.514;13.458;2022-12-18T11:24:27;-1.85;79.42
69770;SHT30;57282;52.514;13.458;2022-12-18T11:26:57;-1.83;79.38
69770;SHT30;57282;52.514;13.458;2022-12-18T11:29:32;-1.89;79.33
69770;SHT30;57282;52.514;13.458;2022-12-18T11:32:21;-1.90;79.06
69770;SHT30;57282;52.514;13.458;2022-12-18T11:34:59;-1.85;79.39
69770;SHT30;57282;52.514;13.458;2022-12-18T11:37:30;-1.83;79.05
69770;SHT30;57282;52.514;13.458;2022-12-18T11:40:03;-1.79;79.02
69770;SHT30;57282;52.514;13.458;2022-12-18T11:42:37;-1.79;78.86
69770;SHT30;57282;52.514;13.458;2022-12-18T11:45:25;-1.81;78.73
69770;SHT30;57282;52.514;13.458;2022-12-18T11:47:58;-1.86;78.93
69770;SHT30;57282;52.514;13.458;2022-12-18T11:50:38;-1.85;78.90
69770;SHT30;57282;52.514;13.458;2022-12-18T11:53:12;-1.86;78.95
69770;SHT30;57282;52.514;13.458;2022-12-18T11:55:47;-1.90;78.78
69770;SHT30;57282;52.514;13.458;2022-12-18T11:58:29;-1.92;78.93
69770;SHT30;57282;52.514;13.458;2022-12-18T12:01:12;-1.90;78.73
69770;SHT30;57282;52.514;13.458;2022-12-18T12:03:56;-1.89;78.90
69770;SHT30;57282;52.514;13.458;2022-12-18T12:06:46;-1.92;78.35
69770;SHT30;57282;52.514;13.458;2022-12-18T12:09:26;-1.89;78.62
69770;SHT30;57282;52.514;13.458;2022-12-18T12:12:14;-1.89;78.63
69770;SHT30;57282;52.514;13.458;2022-12-18T12:14:59;-1.81;78.55
69770;SHT30;57282;52.514;13.458;2022-12-18T12:17:40;-1.85;78.13
69770;SHT30;57282;52.514;13.458;2022-12-18T12:20:16;-1.81;77.93
69770;SHT30;57282;52.514;13.458;2022-12-18T12:22:54;-1.76;78.12
69770;SHT30;57282;52.514;13.458;2022-12-18T12:25:35;-1.79;78.06
69770;SHT30;57282;52.514;13.458;2022-12-18T12:28:16;-1.76;77.91
69770;SHT30;57282;52.514;13.458;2022-12-18T12:31:00;-1.75;78.22
69770;SHT30;57282;52.514;13.458;2022-12-18T12:33:43;-1.75;78.05
69770;SHT30;57282;52.514;13.458;2022-12-18T12:36:25;-1.74;77.84
69770;SHT30;57282;52.514;13.458;2022-12-18T12:39:01;-1.74;77.85
69770;SHT30;57282;52.514;13.458;2022-12-18T12:41:33;-1.74;77.49
69770;SHT30;57282;52.514;13.458;2022-12-18T12:44:24;-1.74;77.49
69770;SHT30;57282;52.514;13.458;2022-12-18T12:46:57;-1.69;77.45
69770;SHT30;57282;52.514;13.458;2022-12-18T12:49:29;-1.69;77.56
69770;SHT30;57282;52.514;13.458;2022-12-18T12:52:05;-1.76;77.30
69770;SHT30;57282;52.514;13.458;2022-12-18T12:54:34;-1.72;77.62
69770;SHT30;57282;52.514;13.458;2022-12-18T12:57:09;-1.71;77.68
69770;SHT30;57282;52.514;13.458;2022-12-18T12:59:50;-1.71;77.96
69770;SHT30;57282;52.514;13.458;2022-12-18T13:02:28;-1.66;77.89
69770;SHT30;57282;52.514;13.458;2022-12-18T13:05:04;-1.62;77.52
69770;SHT30;57282;52.514;13.458;2022-12-18T13:07:47;-1.62;77.16
69770;SHT30;57282;52.514;13.458;2022-12-18T13:10:34;-1.59;77.04
69770;SHT30;57282;52.514;13.458;2022-12-18T13:13:04;-1.50;77.04
69770;SHT30;57282;52.514;13.458;2022-12-18T13:15:37;-1.57;76.89
69770;SHT30;57282;52.514;13.458;2022-12-18T13:18:13;-1.58;77.36
69770;SHT30;57282;52.514;13.458;2022-12-18T13:20:44;-1.58;77.47
69770;SHT30;57282;52.514;13.458;2022-12-18T13:23:34;-1.52;77.51
69770;SHT30;57282;52.514;13.458;2022-12-18T13:26:32;-1.50;77.10
69770;SHT30;57282;52.514;13.458;2022-12-18T13:29:00;-1.48;76.95
69770;SHT30;57282;52.514;13.458;2022-12-18T13:34:48;-1.48;76.90
69770;SHT30;57282;52.514;13.458;2022-12-18T13:37:41;-1.51;76.58
69770;SHT30;57282;52.514;13.458;2022-12-18T13:40:54;-1.48;76.51
69770;SHT30;57282;52.514;13.458;2022-12-18T13:43:38;-1.51;76.67
69770;SHT30;57282;52.514;13.458;2022-12-18T13:46:20;-1.51;77.08
69770;SHT30;57282;52.514;13.458;2022-12-18T13:48:57;-1.44;77.31
69770;SHT30;57282;52.514;13.458;2022-12-18T13:51:28;-1.45;77.32
69770;SHT30;57282;52.514;13.458;2022-12-18T13:53:59;-1.47;77.51
69770;SHT30;57282;52.514;13.458;2022-12-18T13:56:30;-1.44;77.65
69770;SHT30;57282;52.514;13.458;2022-12-18T13:59:19;-1.45;77.20
69770;SHT30;57282;52.514;13.458;2022-12-18T14:01:50;-1.47;77.39
69770;SHT30;57282;52.514;13.458;2022-12-18T14:04:25;-1.41;77.40
69770;SHT30;57282;52.514;13.458;2022-12-18T14:06:55;-1.41;76.96
69770;SHT30;57282;52.514;13.458;2022-12-18T14:09:26;-1.41;77.15
69770;SHT30;57282;52.514;13.458;2022-12-18T14:11:57;-1.43;77.12
69770;SHT30;57282;52.514;13.458;2022-12-18T14:14:41;-1.40;77.52
69770;SHT30;57282;52.514;13.458;2022-12-18T14:17:11;-1.43;77.07
69770;SHT30;57282;52.514;13.458;2022-12-18T14:19:43;-1.40;77.28
69770;SHT30;57282;52.514;13.458;2022-12-18T14:22:17;-1.43;77.43
69770;SHT30;57282;52.514;13.458;2022-12-18T14:24:46;-1.47;77.38
69770;SHT30;57282;52.514;13.458;2022-12-18T14:27:22;-1.45;77.12
69770;SHT30;57282;52.514;13.458;2022-12-18T14:29:51;-1.44;77.00
69770;SHT30;57282;52.514;13.458;2022-12-18T14:32:19;-1.45;77.09
69770;SHT30;57282;52.514;13.458;2022-12-18T14:34:49;-1.45;77.19
69770;SHT30;57282;52.514;13.458;2022-12-18T14:37:22;-1.47;76.84
69770;SHT30;57282;52.514;13.458;2022-12-18T14:39:57;-1.48;76.85
69770;SHT30;57282;52.514;13.458;2022-12-18T14:42:25;-1.51;76.71
69770;SHT30;57282;52.514;13.458;2022-12-18T14:48:00;-1.44;76.17
69770;SHT30;57282;52.514;13.458;2022-12-18T14:50:37;-1.54;76.44
69770;SHT30;57282;52.514;13.458;2022-12-18T14:53:18;-1.54;76.37
69770;SHT30;57282;52.514;13.458;2022-12-18T14:55:48;-1.58;76.77
69770;SHT30;57282;52.514;13.458;2022-12-18T14:58:17;-1.55;76.35
69770;SHT30;57282;52.514;13.458;2022-12-18T15:00:47;-1.57;76.65
69770;SHT30;57282;52.514;13.458;2022-12-18T15:03:17;-1.55;76.64
69770;SHT30;57282;52.514;13.458;2022-12-18T15:05:48;-1.51;76.63
69770;SHT30;57282;52.514;13.458;2022-12-18T15:08:30;-1.55;76.92
69770;SHT30;57282;52.514;13.458;2022-12-18T15:11:02;-1.58;77.10
69770;SHT30;57282;52.514;13.458;2022-12-18T15:13:29;-1.57;77.07
69770;SHT30;57282;52.514;13.458;2022-12-18T15:15:57;-1.62;77.10
69770;SHT30;57282;52.514;13.458;2022-12-18T15:18:32;-1.59;77.35
69770;SHT30;57282;52.514;13.458;2022-12-18T15:21:09;-1.57;77.55
69770;SHT30;57282;52.514;13.458;2022-12-18T15:23:48;-1.59;77.59
69770;SHT30;57282;52.514;13.458;2022-12-18T15:26:17;-1.58;77.74
69770;SHT30;57282;52.514;13.458;2022-12-18T15:28:47;-1.57;77.83
69770;SHT30;57282;52.514;13.458;2022-12-18T15:31:24;-1.54;77.57
69770;SHT30;57282;52.514;13.458;2022-12-18T15:34:11;-1.54;77.48
69770;SHT30;57282;52.514;13.458;2022-12-18T15:36:41;-1.48;77.15
69770;SHT30;57282;52.514;13.458;2022-12-18T15:39:10;-1.57;76.80
69770;SHT30;57282;52.514;13.458;2022-12-18T15:41:38;-1.55;76.88
69770;SHT30;57282;52.514;13.458;2022-12-18T15:44:21;-1.57;76.67
69770;SHT30;57282;52.514;13.458;2022-12-18T15:46:48;-1.59;76.49
69770;SHT30;57282;52.514;13.458;2022-12-18T15:49:14;-1.59;75.94
69770;SHT30;57282;52.514;13.458;2022-12-18T15:51:43;-1.64;76.07